^^
Meteo Knjazevac Station Historical Data
Daily Summary for February 20, 2021 Units:  Both    English   Metric
Daily Weekly Monthly Yearly Custom
  High: Low: Average:
Temperature: 31.1 °F /  -0.5 °C 23.5 °F /  -4.7 °C 26.8 °F /  -2.9 °C
Dew Point: 27.4 °F /  -2.6 °C 21.3 °F /  -5.9 °C 24.2 °F /  -4.3 °C
Humidity: 93% 86% 90%
Wind Speed: 6mph /  9.7km/h - 2.2mph /  3.5km/h
Wind Gust: 14mph /  22.5km/h - -
Wind- - South
Pressure: 30.27 in /  1024.9 hPa 30.26 in /  1024.6 hPa -
Precipitation: 0.00 in /  0 mm    
Historical Graphs
 
 
Tabular Data for February 20, 2021
Time Temperature Dew Point Pressure Wind Wind Speed Wind Gust Humidity Rainfall Rate (Hourly) solar Conditions
00:00 24.3 °F /  -4.3 °C 22 °F /  -5.6 °C 30.27in /  1024.9hPa NW 1mph /  1.6km/h 4mph /  6.4km/h 91% 0.00in /  0mm 0 W/m2
00:10 24 °F /  -4.4 °C 21.7 °F /  -5.7 °C 30.27in /  1024.9hPa West 2mph /  3.2km/h 4mph /  6.4km/h 91% 0.00in /  0mm 0 W/m2
00:20 23.9 °F /  -4.5 °C 21.7 °F /  -5.7 °C 30.27in /  1024.9hPa NW 1mph /  1.6km/h 4mph /  6.4km/h 91% 0.00in /  0mm 0 W/m2
00:30 24.1 °F /  -4.4 °C 22.4 °F /  -5.3 °C 30.27in /  1024.9hPa SSW 1mph /  1.6km/h 7mph /  11.3km/h 93% 0.00in /  0mm 0 W/m2
00:40 24.3 °F /  -4.3 °C 22.5 °F /  -5.3 °C 30.27in /  1024.9hPa Calm   3mph /  4.8km/h 93% 0.00in /  0mm 0 W/m2
00:50 24.8 °F /  -4 °C 23.1 °F /  -4.9 °C 30.27in /  1024.9hPa Calm   8mph /  12.9km/h 93% 0.00in /  0mm 0 W/m2
01:00 24.8 °F /  -4 °C 23.1 °F /  -4.9 °C 30.27in /  1024.9hPa WSW 1mph /  1.6km/h 3mph /  4.8km/h 93% 0.00in /  0mm 0 W/m2
01:10 24.9 °F /  -3.9 °C 23.2 °F /  -4.9 °C 30.27in /  1024.9hPa SE 2mph /  3.2km/h 8mph /  12.9km/h 93% 0.00in /  0mm 0 W/m2
01:20 25.5 °F /  -3.6 °C 23.8 °F /  -4.6 °C 30.27in /  1024.9hPa SE 6mph /  9.7km/h 9mph /  14.5km/h 93% 0.00in /  0mm 0 W/m2
01:30 25 °F /  -3.9 °C 22.5 °F /  -5.3 °C 30.27in /  1024.9hPa South 5mph /  8km/h 10mph /  16.1km/h 90% 0.00in /  0mm 0 W/m2
01:40 24.3 °F /  -4.3 °C 21.6 °F /  -5.8 °C 30.26in /  1024.6hPa WSW 2mph /  3.2km/h 8mph /  12.9km/h 89% 0.00in /  0mm 0 W/m2
01:50 24.3 °F /  -4.3 °C 21.8 °F /  -5.7 °C 30.27in /  1024.9hPa Calm   9mph /  14.5km/h 90% 0.00in /  0mm 0 W/m2
02:00 24.1 °F /  -4.4 °C 21.6 °F /  -5.8 °C 30.27in /  1024.9hPa WSW 1mph /  1.6km/h 8mph /  12.9km/h 90% 0.00in /  0mm 0 W/m2
02:10 23.9 °F /  -4.5 °C 21.7 °F /  -5.7 °C 30.26in /  1024.6hPa WSW 1mph /  1.6km/h 4mph /  6.4km/h 91% 0.00in /  0mm 0 W/m2
02:20 23.5 °F /  -4.7 °C 21.3 °F /  -5.9 °C 30.26in /  1024.6hPa WNW 1mph /  1.6km/h 4mph /  6.4km/h 91% 0.00in /  0mm 0 W/m2
02:30 23.5 °F /  -4.7 °C 21.3 °F /  -5.9 °C 30.27in /  1024.9hPa West 1mph /  1.6km/h 2mph /  3.2km/h 91% 0.00in /  0mm 0 W/m2
02:40 23.7 °F /  -4.6 °C 22 °F /  -5.6 °C 30.27in /  1024.9hPa West 1mph /  1.6km/h 4mph /  6.4km/h 93% 0.00in /  0mm 0 W/m2
02:50 24.3 °F /  -4.3 °C 22.5 °F /  -5.3 °C 30.26in /  1024.6hPa SSE 1mph /  1.6km/h 5mph /  8km/h 93% 0.00in /  0mm 0 W/m2
03:00 25.6 °F /  -3.6 °C 23.9 °F /  -4.5 °C 30.26in /  1024.6hPa SSE 3mph /  4.8km/h 7mph /  11.3km/h 93% 0.00in /  0mm 0 W/m2
03:10 25.9 °F /  -3.4 °C 23.4 °F /  -4.8 °C 30.26in /  1024.6hPa SSE 2mph /  3.2km/h 6mph /  9.7km/h 90% 0.00in /  0mm 0 W/m2
03:20 25.9 °F /  -3.4 °C 23.4 °F /  -4.8 °C 30.26in /  1024.6hPa ESE 1mph /  1.6km/h 5mph /  8km/h 90% 0.00in /  0mm 0 W/m2
03:30 25.7 °F /  -3.5 °C 23.2 °F /  -4.9 °C 30.27in /  1024.9hPa Calm   5mph /  8km/h 90% 0.00in /  0mm 0 W/m2
03:40 26.1 °F /  -3.3 °C 23.5 °F /  -4.7 °C 30.26in /  1024.6hPa SSE 2mph /  3.2km/h 7mph /  11.3km/h 90% 0.00in /  0mm 0 W/m2
03:50 26.1 °F /  -3.3 °C 23.5 °F /  -4.7 °C 30.26in /  1024.6hPa WSW 2mph /  3.2km/h 7mph /  11.3km/h 90% 0.00in /  0mm 0 W/m2
04:00 26.7 °F /  -2.9 °C 24.2 °F /  -4.3 °C 30.26in /  1024.6hPa SSE 2mph /  3.2km/h 7mph /  11.3km/h 90% 0.00in /  0mm 0 W/m2
04:10 27.3 °F /  -2.6 °C 24.7 °F /  -4.1 °C 30.26in /  1024.6hPa ESE 5mph /  8km/h 11mph /  17.7km/h 90% 0.00in /  0mm 0 W/m2
04:20 27.8 °F /  -2.3 °C 25 °F /  -3.9 °C 30.27in /  1024.9hPa ESE 6mph /  9.7km/h 11mph /  17.7km/h 89% 0.00in /  0mm 0 W/m2
04:30 28.2 °F /  -2.1 °C 25.4 °F /  -3.7 °C 30.26in /  1024.6hPa SE 1mph /  1.6km/h 11mph /  17.7km/h 89% 0.00in /  0mm 0 W/m2
04:40 28.2 °F /  -2.1 °C 25.4 °F /  -3.7 °C 30.26in /  1024.6hPa SE 3mph /  4.8km/h 7mph /  11.3km/h 89% 0.00in /  0mm 0 W/m2
04:50 28.4 °F /  -2 °C 25.6 °F /  -3.6 °C 30.26in /  1024.6hPa SE 5mph /  8km/h 12mph /  19.3km/h 89% 0.00in /  0mm 0 W/m2
05:00 28.8 °F /  -1.8 °C 25.9 °F /  -3.4 °C 30.26in /  1024.6hPa SE 1mph /  1.6km/h 9mph /  14.5km/h 89% 0.00in /  0mm 0 W/m2
05:10 28.8 °F /  -1.8 °C 25.9 °F /  -3.4 °C 30.26in /  1024.6hPa ESE 3mph /  4.8km/h 8mph /  12.9km/h 89% 0.00in /  0mm 0 W/m2
05:20 28.9 °F /  -1.7 °C 26.1 °F /  -3.3 °C 30.27in /  1024.9hPa SSE 2mph /  3.2km/h 10mph /  16.1km/h 89% 0.00in /  0mm 0 W/m2
05:30 29.1 °F /  -1.6 °C 26.3 °F /  -3.2 °C 30.26in /  1024.6hPa SSE 3mph /  4.8km/h 7mph /  11.3km/h 89% 0.00in /  0mm 0 W/m2
05:40 29.4 °F /  -1.4 °C 26.3 °F /  -3.2 °C 30.26in /  1024.6hPa SE 3mph /  4.8km/h 10mph /  16.1km/h 88% 0.00in /  0mm 0 W/m2
05:50 29.7 °F /  -1.3 °C 26.5 °F /  -3.1 °C 30.26in /  1024.6hPa SSE 3mph /  4.8km/h 10mph /  16.1km/h 88% 0.00in /  0mm 0 W/m2
06:00 30.2 °F /  -1 °C 27.1 °F /  -2.7 °C 30.26in /  1024.6hPa SSE 3mph /  4.8km/h 11mph /  17.7km/h 88% 0.00in /  0mm 0 W/m2
06:10 30.6 °F /  -0.8 °C 26.9 °F /  -2.8 °C 30.27in /  1024.9hPa South 3mph /  4.8km/h 8mph /  12.9km/h 86% 0.00in /  0mm 0 W/m2
06:20 30.9 °F /  -0.6 °C 27.2 °F /  -2.7 °C 30.27in /  1024.9hPa SSE 2mph /  3.2km/h 14mph /  22.5km/h 86% 0.00in /  0mm 0 W/m2
06:30 30.9 °F /  -0.6 °C 27.2 °F /  -2.7 °C 30.26in /  1024.6hPa SSE 5mph /  8km/h 11mph /  17.7km/h 86% 0.00in /  0mm 0 W/m2
06:40 31 °F /  -0.6 °C 27.3 °F /  -2.6 °C 30.26in /  1024.6hPa SSE 3mph /  4.8km/h 8mph /  12.9km/h 86% 0.00in /  0mm 0 W/m2
06:50 31.1 °F /  -0.5 °C 27.4 °F /  -2.6 °C 30.27in /  1024.9hPa SSE 2mph /  3.2km/h 10mph /  16.1km/h 86% 0.00in /  0mm 0 W/m2
07:00 31.1 °F /  -0.5 °C 27.4 °F /  -2.6 °C 30.27in /  1024.9hPa SSW 1mph /  1.6km/h 9mph /  14.5km/h 86% 0.00in /  0mm 1 W/m2
07:10 31.1 °F /  -0.5 °C 27.4 °F /  -2.6 °C 30.27in /  1024.9hPa SSE 2mph /  3.2km/h 10mph /  16.1km/h 86% 0.00in /  0mm 5 W/m2
Knjazevac, Serbia
Compliments of Weather Underground - 2 mb